Time;durP1;ratioP1;P1;durP2;ratioP2;P2;SDS_P1;SDS_P2;PMS_P1;PMS_P2;Temp;Humidity;BMP_temperature;BMP_pressure;BME280_temperature;BME280_humidity;BME280_pressure;Samples;Min_cycle;Max_cycle;Signal;HPM_P1;HPM_P2
2022/12/02 00:00:28;;;;;;;21.23;16.65;;;2.10;99.90;;;;;;4954296;28;20250;-87
2022/12/02 00:02:58;;;;;;;23.15;16.25;;;2.10;99.90;;;;;;4953690;28;20583;-87
2022/12/02 00:05:32;;;;;;;19.13;16.55;;;2.10;99.90;;;;;;4953920;28;20213;-87
2022/12/02 00:08:02;;;;;;;22.38;17.77;;;2.10;99.90;;;;;;4954472;28;20197;-87
2022/12/02 00:10:32;;;;;;;20.15;17.13;;;2.10;99.90;;;;;;4956224;28;20300;-86
2022/12/02 00:13:10;;;;;;;23.38;18.17;;;2.00;99.90;;;;;;4955474;28;20225;-86
2022/12/02 00:15:42;;;;;;;19.75;15.80;;;2.10;99.90;;;;;;4956401;29;20223;-86
2022/12/02 00:18:11;;;;;;;20.83;16.13;;;2.10;99.90;;;;;;4955753;29;20212;-87
2022/12/02 00:20:42;;;;;;;24.58;17.67;;;2.10;99.90;;;;;;4955960;29;20292;-87
2022/12/02 00:23:11;;;;;;;23.00;17.67;;;2.00;99.90;;;;;;4955735;28;20308;-87
2022/12/02 00:25:41;;;;;;;24.90;17.58;;;2.00;99.90;;;;;;4956031;29;20209;-87
2022/12/02 00:28:09;;;;;;;27.65;18.92;;;2.10;99.90;;;;;;4955845;28;20297;-86
2022/12/02 00:30:37;;;;;;;23.65;17.38;;;2.10;99.90;;;;;;4955791;28;20256;-86
2022/12/02 00:33:05;;;;;;;27.42;18.83;;;2.10;99.90;;;;;;4955910;28;20237;-86
2022/12/02 00:35:34;;;;;;;22.80;17.58;;;2.10;99.90;;;;;;4955556;28;20213;-86
2022/12/02 00:38:04;;;;;;;27.33;18.10;;;2.10;99.90;;;;;;4955233;28;20314;-86
2022/12/02 00:40:33;;;;;;;21.25;17.05;;;2.10;99.90;;;;;;4956241;29;20212;-87
2022/12/02 00:48:35;;;;;;;20.17;16.27;;;2.10;99.90;;;;;;4955189;28;20215;-87
2022/12/02 00:51:04;;;;;;;19.95;16.80;;;2.10;99.90;;;;;;4955157;29;20256;-87
2022/12/02 00:53:34;;;;;;;26.20;18.70;;;2.00;99.90;;;;;;4955629;28;20324;-87
2022/12/02 00:56:02;;;;;;;29.35;18.08;;;2.00;99.90;;;;;;4955494;28;20209;-87
2022/12/02 00:58:30;;;;;;;25.58;18.48;;;2.10;99.90;;;;;;4954725;28;20300;-87
2022/12/02 01:00:58;;;;;;;20.65;17.13;;;2.10;99.90;;;;;;4955483;28;20209;-87
2022/12/02 01:03:27;;;;;;;28.52;19.02;;;2.10;99.90;;;;;;4954944;28;20229;-87
2022/12/02 01:05:55;;;;;;;24.83;17.35;;;2.10;99.90;;;;;;4955226;28;20228;-87
2022/12/02 01:08:26;;;;;;;22.20;18.30;;;2.10;99.90;;;;;;4954986;29;20219;-87
2022/12/02 01:10:57;;;;;;;19.80;17.13;;;2.10;99.90;;;;;;4954622;28;20231;-87
2022/12/02 01:13:26;;;;;;;21.35;16.65;;;2.10;99.90;;;;;;4954759;28;20259;-87
2022/12/02 01:15:55;;;;;;;22.77;17.98;;;2.10;99.90;;;;;;4954643;29;20201;-87
2022/12/02 01:18:23;;;;;;;28.40;18.50;;;2.10;99.90;;;;;;4954863;29;20304;-87
2022/12/02 01:20:52;;;;;;;23.05;17.17;;;2.20;99.90;;;;;;4955076;29;20212;-88
2022/12/02 01:23:20;;;;;;;17.52;15.65;;;2.20;99.90;;;;;;4954849;28;20236;-87
2022/12/02 01:25:49;;;;;;;21.15;17.98;;;2.20;99.90;;;;;;4955005;29;20215;-87
2022/12/02 01:28:19;;;;;;;23.90;17.10;;;2.20;99.90;;;;;;4954579;29;20203;-87
2022/12/02 01:30:47;;;;;;;23.63;18.27;;;2.10;99.90;;;;;;4955009;28;20228;-88
2022/12/02 01:33:16;;;;;;;24.85;15.90;;;2.10;99.90;;;;;;4954768;28;20267;-87
2022/12/02 01:35:44;;;;;;;19.02;15.63;;;2.20;99.90;;;;;;4954352;28;20296;-87
2022/12/02 01:38:12;;;;;;;24.30;18.73;;;2.20;99.90;;;;;;4954613;28;20205;-87
2022/12/02 01:40:41;;;;;;;21.70;16.93;;;2.10;99.90;;;;;;4954562;28;20296;-87
2022/12/02 01:43:10;;;;;;;20.45;16.75;;;2.10;99.90;;;;;;4954355;28;20285;-87
2022/12/02 01:45:39;;;;;;;27.92;17.15;;;2.10;99.90;;;;;;4954540;28;20201;-87
2022/12/02 01:48:08;;;;;;;28.63;18.17;;;2.10;99.90;;;;;;4954535;28;20217;-87
2022/12/02 01:50:36;;;;;;;21.08;17.63;;;2.10;99.90;;;;;;4954152;28;20291;-87
2022/12/02 01:53:04;;;;;;;25.90;18.05;;;2.10;99.90;;;;;;4954122;29;20232;-87
2022/12/02 01:55:33;;;;;;;22.48;16.70;;;2.00;99.90;;;;;;4954461;28;20205;-87
2022/12/02 01:58:01;;;;;;;20.00;16.90;;;2.00;99.90;;;;;;4954396;28;20209;-87
2022/12/02 02:00:30;;;;;;;21.10;17.58;;;2.00;99.90;;;;;;4954975;28;20236;-87
2022/12/02 02:03:00;;;;;;;19.80;16.98;;;2.00;99.90;;;;;;4954729;29;20226;-87
2022/12/02 02:05:30;;;;;;;20.40;17.17;;;1.90;99.90;;;;;;4954173;28;20299;-87
2022/12/02 02:08:02;;;;;;;25.65;18.35;;;1.90;99.90;;;;;;4954228;28;20205;-87
2022/12/02 02:10:32;;;;;;;33.42;19.55;;;1.90;99.90;;;;;;4953911;28;20217;-87
2022/12/02 02:13:01;;;;;;;22.63;17.55;;;2.00;99.90;;;;;;4954023;28;20217;-87
2022/12/02 02:15:29;;;;;;;22.02;17.25;;;1.90;99.90;;;;;;4954429;28;20291;-87
2022/12/02 02:17:59;;;;;;;22.33;17.33;;;2.00;99.90;;;;;;4954338;29;20205;-87
2022/12/02 02:20:33;;;;;;;28.20;17.25;;;2.00;99.90;;;;;;4953654;28;20196;-87
2022/12/02 02:23:17;;;;;;;25.90;18.67;;;2.00;99.90;;;;;;4957139;28;20240;-87
2022/12/02 02:25:48;;;;;;;42.28;19.15;;;2.00;99.90;;;;;;4958395;28;20244;-87
2022/12/02 02:28:16;;;;;;;19.90;15.80;;;2.00;99.90;;;;;;4958021;28;20263;-87
2022/12/02 02:30:45;;;;;;;30.13;19.50;;;1.90;99.90;;;;;;4957301;29;20246;-87
2022/12/02 02:33:14;;;;;;;26.00;17.52;;;2.00;99.90;;;;;;4957645;28;20280;-87
2022/12/02 02:35:44;;;;;;;23.25;16.83;;;2.00;99.90;;;;;;4957864;29;20239;-87
2022/12/02 02:38:17;;;;;;;23.05;18.20;;;2.00;99.90;;;;;;4957434;29;20215;-87
2022/12/02 02:40:46;;;;;;;21.10;17.35;;;1.90;99.90;;;;;;4958255;28;20205;-87
2022/12/02 02:43:15;;;;;;;22.08;17.20;;;2.00;99.90;;;;;;4957356;28;20304;-87
2022/12/02 02:45:44;;;;;;;25.63;17.80;;;2.00;99.90;;;;;;4958212;28;20209;-87
2022/12/02 02:48:14;;;;;;;22.95;17.30;;;2.00;99.90;;;;;;4957703;28;20205;-87
2022/12/02 02:50:45;;;;;;;19.90;17.13;;;2.00;99.90;;;;;;4958200;28;20221;-87
2022/12/02 02:53:17;;;;;;;19.88;16.98;;;2.00;99.90;;;;;;4957823;28;20225;-87
2022/12/02 02:55:45;;;;;;;22.17;18.40;;;2.00;99.90;;;;;;4957740;28;20241;-87
2022/12/02 02:58:19;;;;;;;30.02;19.67;;;2.10;99.90;;;;;;4957253;29;20236;-87
2022/12/02 03:00:51;;;;;;;30.73;18.77;;;2.00;99.90;;;;;;4957007;29;20201;-87
2022/12/02 03:03:22;;;;;;;29.67;18.60;;;2.00;99.90;;;;;;4957302;28;20264;-87
2022/12/02 03:05:53;;;;;;;25.42;19.58;;;2.00;99.90;;;;;;4957485;29;20213;-87
2022/12/02 03:08:24;;;;;;;21.20;16.95;;;2.00;99.90;;;;;;4957514;29;20213;-87
2022/12/02 03:10:56;;;;;;;24.70;18.70;;;2.00;99.90;;;;;;4957501;29;20260;-87
2022/12/02 03:13:25;;;;;;;24.17;19.00;;;2.00;99.90;;;;;;4957426;28;20252;-87
2022/12/02 03:15:54;;;;;;;25.55;18.65;;;2.10;99.90;;;;;;4957277;29;20232;-87
2022/12/02 03:18:22;;;;;;;24.77;18.88;;;2.10;99.90;;;;;;4956937;29;20213;-87
2022/12/02 03:20:50;;;;;;;25.10;19.02;;;2.10;99.90;;;;;;4956874;29;20299;-87
2022/12/02 03:23:19;;;;;;;22.63;18.60;;;2.10;99.90;;;;;;4956928;28;20225;-87
2022/12/02 03:25:49;;;;;;;32.97;19.90;;;2.10;99.90;;;;;;4956890;29;20300;-87
2022/12/02 03:28:17;;;;;;;25.50;20.08;;;2.10;99.90;;;;;;4956924;29;20285;-87
2022/12/02 03:30:46;;;;;;;32.65;19.58;;;2.00;99.90;;;;;;4956545;28;20253;-87
2022/12/02 03:33:15;;;;;;;22.80;17.38;;;2.00;99.90;;;;;;4954953;28;20261;-87
2022/12/02 03:35:43;;;;;;;24.25;18.95;;;2.00;99.90;;;;;;4956800;28;20220;-87
2022/12/02 03:38:11;;;;;;;27.23;19.67;;;2.00;99.90;;;;;;4956593;29;20213;-87
2022/12/02 03:40:39;;;;;;;22.92;18.27;;;2.10;99.90;;;;;;4956557;29;20300;-87
2022/12/02 03:43:09;;;;;;;25.02;18.92;;;2.00;99.90;;;;;;4955574;29;20236;-87
2022/12/02 03:45:38;;;;;;;23.30;17.35;;;2.00;99.90;;;;;;4956834;28;20295;-86
2022/12/02 03:48:06;;;;;;;25.95;19.35;;;1.90;99.90;;;;;;4956335;28;20217;-87
2022/12/02 03:50:35;;;;;;;26.98;17.95;;;1.90;99.90;;;;;;4956539;28;20197;-86
2022/12/02 03:53:03;;;;;;;21.40;17.55;;;1.90;99.90;;;;;;4956323;28;20316;-87
2022/12/02 03:55:32;;;;;;;24.48;18.42;;;1.80;99.90;;;;;;4956501;28;20370;-87
2022/12/02 03:58:05;;;;;;;28.90;19.02;;;1.70;99.90;;;;;;4956352;28;20219;-87
2022/12/02 04:00:36;;;;;;;28.30;18.23;;;1.80;99.90;;;;;;4956077;28;20256;-86
2022/12/02 04:03:05;;;;;;;20.98;18.60;;;1.70;99.90;;;;;;4956346;28;20309;-87
2022/12/02 04:05:34;;;;;;;24.30;18.60;;;1.80;99.90;;;;;;4956114;28;20201;-86
2022/12/02 04:08:02;;;;;;;22.60;18.95;;;1.70;99.90;;;;;;4956162;28;20209;-87
2022/12/02 04:10:30;;;;;;;22.85;18.48;;;1.70;99.90;;;;;;4956409;28;20206;-87
2022/12/02 04:12:59;;;;;;;27.92;18.98;;;1.70;99.90;;;;;;4955409;28;20304;-87
2022/12/02 04:15:27;;;;;;;26.02;18.98;;;1.70;99.90;;;;;;4956129;28;20296;-86
2022/12/02 04:17:57;;;;;;;26.05;18.83;;;1.70;99.90;;;;;;4956067;28;20214;-87
2022/12/02 04:20:25;;;;;;;28.63;20.43;;;1.80;99.90;;;;;;4956019;28;20211;-86
2022/12/02 04:22:53;;;;;;;24.33;20.03;;;1.70;99.90;;;;;;4955933;28;20304;-87
2022/12/02 04:25:22;;;;;;;29.42;19.73;;;1.70;99.90;;;;;;4955652;29;20265;-87
2022/12/02 04:27:50;;;;;;;25.25;20.00;;;1.70;99.90;;;;;;4956125;29;20264;-87
2022/12/02 04:30:18;;;;;;;35.88;22.02;;;1.70;99.90;;;;;;4955976;29;20209;-87
2022/12/02 04:32:46;;;;;;;26.70;20.23;;;1.80;99.90;;;;;;4955265;28;20237;-87
2022/12/02 04:35:16;;;;;;;25.13;19.98;;;1.80;99.90;;;;;;4955415;29;20228;-87
2022/12/02 04:37:45;;;;;;;26.90;20.55;;;1.80;99.90;;;;;;4955759;29;20209;-87
2022/12/02 04:40:13;;;;;;;26.42;18.83;;;1.80;99.90;;;;;;4955684;28;20275;-87
2022/12/02 04:42:42;;;;;;;25.15;19.60;;;1.90;99.90;;;;;;4955364;29;20228;-87
2022/12/02 04:45:11;;;;;;;25.58;19.58;;;1.80;99.90;;;;;;4955092;28;20209;-87
2022/12/02 04:47:39;;;;;;;27.33;19.13;;;1.90;99.90;;;;;;4955297;28;20209;-87
2022/12/02 04:50:08;;;;;;;24.42;18.98;;;1.90;99.90;;;;;;4955508;28;20205;-87
2022/12/02 04:52:38;;;;;;;22.80;19.70;;;1.90;99.90;;;;;;4955182;28;20228;-87
2022/12/02 04:55:07;;;;;;;28.35;20.42;;;1.90;99.90;;;;;;4954906;28;20244;-87
2022/12/02 04:57:35;;;;;;;30.67;18.27;;;1.80;99.90;;;;;;4955148;28;20243;-87
2022/12/02 05:00:05;;;;;;;26.38;20.20;;;1.80;99.90;;;;;;4955308;28;20213;-87
2022/12/02 05:02:33;;;;;;;22.67;19.70;;;1.90;99.90;;;;;;4955174;28;20219;-87
2022/12/02 05:05:02;;;;;;;23.92;19.45;;;1.90;99.90;;;;;;4954777;28;20212;-87
2022/12/02 05:07:30;;;;;;;23.70;18.23;;;1.90;99.90;;;;;;4954843;28;20266;-87
2022/12/02 05:10:00;;;;;;;28.52;18.65;;;1.90;99.90;;;;;;4955206;28;20236;-86
2022/12/02 05:12:28;;;;;;;27.30;19.10;;;1.90;99.90;;;;;;4954668;28;20248;-87
2022/12/02 05:14:57;;;;;;;23.52;19.02;;;1.90;99.90;;;;;;4955055;28;20209;-87
2022/12/02 05:17:25;;;;;;;24.85;20.17;;;1.90;99.90;;;;;;4954819;28;20213;-88
2022/12/02 05:19:53;;;;;;;26.13;19.38;;;1.90;99.90;;;;;;4954790;28;20296;-87
2022/12/02 05:22:22;;;;;;;25.83;19.92;;;1.90;99.90;;;;;;4954969;28;20201;-87
2022/12/02 05:24:50;;;;;;;25.38;20.10;;;1.90;99.90;;;;;;4955218;28;20198;-87
2022/12/02 05:27:20;;;;;;;29.27;20.73;;;1.90;99.90;;;;;;4954397;29;20283;-87
2022/12/02 05:29:49;;;;;;;26.38;19.90;;;1.90;99.90;;;;;;4954734;29;20309;-87
2022/12/02 05:32:17;;;;;;;25.10;18.52;;;1.90;99.90;;;;;;4954286;29;20225;-87
2022/12/02 05:34:46;;;;;;;25.23;18.98;;;1.90;99.90;;;;;;4954666;28;20300;-87
2022/12/02 05:37:14;;;;;;;28.02;20.50;;;1.90;99.90;;;;;;4955062;29;20269;-87
2022/12/02 05:39:42;;;;;;;31.52;19.77;;;2.00;99.90;;;;;;4954625;29;20296;-87
2022/12/02 05:42:14;;;;;;;24.10;19.75;;;1.90;99.90;;;;;;4954462;29;20209;-87
2022/12/02 05:44:43;;;;;;;27.90;20.33;;;1.90;99.90;;;;;;4954977;28;20233;-87
2022/12/02 05:47:13;;;;;;;26.88;19.75;;;1.90;99.90;;;;;;4954422;29;20304;-87
2022/12/02 05:49:43;;;;;;;21.67;18.38;;;2.00;99.90;;;;;;4954649;29;20213;-88
2022/12/02 05:52:22;;;;;;;24.90;18.92;;;1.90;99.90;;;;;;4954506;29;20244;-87
2022/12/02 05:54:53;;;;;;;22.90;17.98;;;1.90;99.90;;;;;;4954199;28;20211;-87
2022/12/02 05:57:25;;;;;;;23.45;19.20;;;1.90;99.90;;;;;;4953328;28;20207;-87
2022/12/02 06:00:10;;;;;;;24.20;19.10;;;1.90;99.90;;;;;;4954385;28;20283;-87
2022/12/02 06:02:43;;;;;;;25.83;20.98;;;1.90;99.90;;;;;;4954325;28;20232;-87
2022/12/02 06:05:18;;;;;;;22.77;18.65;;;1.90;99.90;;;;;;4954130;28;20216;-87
2022/12/02 06:07:48;;;;;;;25.20;18.75;;;1.90;99.90;;;;;;4954629;28;20219;-88
2022/12/02 06:10:24;;;;;;;28.13;20.55;;;1.90;99.90;;;;;;4954729;28;20215;-87
2022/12/02 06:12:55;;;;;;;28.35;20.45;;;1.90;99.90;;;;;;4954010;28;20244;-87
2022/12/02 06:15:27;;;;;;;25.08;19.75;;;1.90;99.90;;;;;;4953845;29;20217;-87
2022/12/02 06:17:55;;;;;;;28.63;20.58;;;1.90;99.90;;;;;;4954103;28;20205;-87
2022/12/02 06:20:28;;;;;;;26.83;19.48;;;1.80;99.90;;;;;;4954149;28;20221;-87
2022/12/02 06:22:57;;;;;;;35.03;19.90;;;1.80;99.90;;;;;;4954127;28;20229;-87
2022/12/02 06:25:29;;;;;;;27.02;19.65;;;1.80;99.90;;;;;;4954124;28;20305;-88
2022/12/02 06:28:05;;;;;;;21.70;17.95;;;1.80;99.90;;;;;;4953619;28;20209;-87
2022/12/02 06:30:40;;;;;;;30.23;20.35;;;1.80;99.90;;;;;;4954046;29;20205;-87
2022/12/02 06:33:20;;;;;;;35.00;21.00;;;1.80;99.90;;;;;;4953923;28;20244;-87
2022/12/02 06:35:50;;;;;;;28.35;19.65;;;1.80;99.90;;;;;;4954002;29;20217;-86
2022/12/02 06:38:27;;;;;;;21.73;18.90;;;1.80;99.90;;;;;;4954009;29;20236;-87
2022/12/02 06:40:55;;;;;;;27.77;19.42;;;1.80;99.90;;;;;;4953532;29;20225;-87
2022/12/02 06:43:27;;;;;;;24.80;19.83;;;1.90;99.90;;;;;;4953879;29;20222;-87
2022/12/02 06:45:57;;;;;;;27.42;20.13;;;1.80;99.90;;;;;;4954088;29;20213;-87
2022/12/02 06:48:31;;;;;;;22.92;19.38;;;1.90;99.90;;;;;;4952994;28;20217;-91
2022/12/02 06:51:11;;;;;;;27.70;21.23;;;1.80;99.90;;;;;;4953478;29;20297;-89
2022/12/02 06:53:41;;;;;;;22.67;18.27;;;1.90;99.90;;;;;;4954077;28;20243;-89
2022/12/02 06:56:21;;;;;;;25.10;18.80;;;1.90;99.90;;;;;;4953752;28;20264;-89
2022/12/02 06:58:55;;;;;;;31.07;20.17;;;1.90;99.90;;;;;;4935015;29;20201;-90
2022/12/02 07:01:30;;;;;;;33.55;21.30;;;1.90;99.90;;;;;;4935078;29;20209;-90
2022/12/02 07:04:19;;;;;;;23.92;19.92;;;2.00;99.90;;;;;;4945491;29;20224;-87
2022/12/02 07:06:51;;;;;;;30.27;21.60;;;2.00;99.90;;;;;;4937458;28;20228;-87
2022/12/02 07:09:27;;;;;;;26.58;20.73;;;2.00;99.90;;;;;;4962000;28;20296;-87
2022/12/02 07:11:59;;;;;;;26.67;20.40;;;2.00;99.90;;;;;;4957341;28;20219;-88
2022/12/02 07:14:33;;;;;;;30.02;21.83;;;2.10;99.90;;;;;;4956635;28;20229;-88
2022/12/02 07:17:04;;;;;;;27.50;20.35;;;2.10;99.90;;;;;;4956907;28;20301;-87
2022/12/02 07:19:37;;;;;;;25.15;20.73;;;2.10;99.90;;;;;;4956654;29;20214;-87
2022/12/02 07:22:14;;;;;;;40.83;22.02;;;2.10;99.90;;;;;;4957269;29;20289;-87
2022/12/02 07:24:49;;;;;;;24.92;18.63;;;2.10;99.90;;;;;;4946248;28;20219;-88
2022/12/02 07:27:23;;;;;;;27.92;20.48;;;2.10;99.90;;;;;;4938046;29;20217;-87
2022/12/02 07:29:52;;;;;;;23.80;19.30;;;2.10;99.90;;;;;;4937853;28;20453;-88
2022/12/02 07:32:22;;;;;;;32.95;20.30;;;2.20;99.90;;;;;;4937975;29;20305;-88
2022/12/02 07:34:50;;;;;;;32.92;19.48;;;2.20;99.90;;;;;;4937527;29;20313;-88
2022/12/02 07:37:20;;;;;;;28.17;20.10;;;2.20;99.90;;;;;;4937657;29;20214;-88
2022/12/02 07:39:48;;;;;;;29.90;20.15;;;2.20;99.90;;;;;;4937641;29;20210;-87
2022/12/02 07:42:17;;;;;;;24.45;19.13;;;2.20;99.90;;;;;;4937379;29;20209;-87
2022/12/02 07:44:45;;;;;;;28.88;20.85;;;2.20;99.90;;;;;;4954820;29;20317;-88
2022/12/02 07:47:13;;;;;;;27.50;19.10;;;2.20;99.90;;;;;;4969604;28;20269;-87
2022/12/02 07:49:43;;;;;;;29.48;20.25;;;2.20;99.90;;;;;;4955513;28;20229;-87
2022/12/02 07:52:12;;;;;;;23.90;18.67;;;2.20;99.90;;;;;;4955827;29;20209;-88
2022/12/02 07:54:41;;;;;;;27.20;19.85;;;2.30;99.90;;;;;;4955635;28;20221;-88
2022/12/02 07:57:09;;;;;;;25.23;20.50;;;2.30;99.90;;;;;;4956176;29;20296;-87
2022/12/02 07:59:38;;;;;;;26.95;20.80;;;2.40;99.90;;;;;;4956116;29;20269;-87
2022/12/02 08:02:06;;;;;;;30.23;20.73;;;2.40;99.90;;;;;;4955914;28;20201;-89
2022/12/02 08:04:34;;;;;;;23.42;17.52;;;2.40;99.90;;;;;;4956148;28;20225;-89
2022/12/02 08:07:04;;;;;;;28.15;20.17;;;2.40;99.90;;;;;;4955701;29;20209;-89
2022/12/02 08:09:33;;;;;;;25.88;18.83;;;2.50;99.90;;;;;;4948710;29;20241;-89
2022/12/02 08:12:01;;;;;;;28.45;20.80;;;2.50;99.90;;;;;;4953538;29;20210;-89
2022/12/02 08:14:37;;;;;;;25.38;18.42;;;2.50;99.90;;;;;;4955771;28;20226;-89
2022/12/02 08:17:08;;;;;;;24.23;19.80;;;2.50;99.90;;;;;;4956131;29;20233;-86
2022/12/02 08:20:06;;;;;;;;;;;;;;;;;;;;;
2022/12/02 08:22:45;;;;;;;27.33;20.00;;;2.60;99.90;;;;;;4956454;28;20228;-86
2022/12/02 08:25:14;;;;;;;28.75;19.52;;;2.60;99.90;;;;;;4956454;28;20209;-87
2022/12/02 08:27:44;;;;;;;26.15;20.45;;;2.60;99.90;;;;;;4943632;28;20300;-87
2022/12/02 08:30:16;;;;;;;28.60;19.60;;;2.60;99.90;;;;;;4936610;29;20237;-87
2022/12/02 08:32:45;;;;;;;25.75;19.83;;;2.60;99.90;;;;;;4936927;29;20232;-86
2022/12/02 08:35:21;;;;;;;31.20;20.40;;;2.60;99.90;;;;;;4953404;29;20263;-86
2022/12/02 08:37:54;;;;;;;29.27;19.70;;;2.70;99.90;;;;;;4955965;28;20201;-87
2022/12/02 08:40:23;;;;;;;27.83;20.98;;;2.70;99.90;;;;;;4955637;28;20260;-86
2022/12/02 08:42:56;;;;;;;32.42;19.00;;;2.70;99.90;;;;;;4955662;28;20228;-86
2022/12/02 08:45:31;;;;;;;26.38;20.38;;;2.80;99.90;;;;;;4953209;28;20233;-86
2022/12/02 08:48:02;;;;;;;27.65;21.58;;;2.80;99.90;;;;;;4953074;28;20220;-86
2022/12/02 08:50:39;;;;;;;29.98;20.88;;;2.80;99.90;;;;;;4949018;29;20232;-86
2022/12/02 08:53:09;;;;;;;28.08;20.38;;;2.90;99.90;;;;;;4955711;28;20275;-87
2022/12/02 08:56:11;;;;;;;23.75;18.50;;;2.90;99.90;;;;;;4955340;28;20281;-86
2022/12/02 08:59:35;;;;;;;22.85;18.55;;;2.90;99.90;;;;;;4955357;29;20273;-86
2022/12/02 09:02:10;;;;;;;23.85;19.30;;;2.90;99.90;;;;;;4954590;28;20202;-85
2022/12/02 09:04:39;;;;;;;29.08;20.23;;;3.00;99.90;;;;;;4953274;28;20275;-85
2022/12/02 09:07:08;;;;;;;30.40;20.95;;;2.90;99.90;;;;;;4955218;29;20212;-85
2022/12/02 09:09:38;;;;;;;29.80;19.95;;;3.00;99.90;;;;;;4955158;28;20205;-85
2022/12/02 09:12:09;;;;;;;21.95;18.80;;;3.00;99.90;;;;;;4955061;29;20212;-85
2022/12/02 09:14:37;;;;;;;26.58;20.98;;;3.00;99.90;;;;;;4955271;29;20256;-85
2022/12/02 09:17:06;;;;;;;26.70;20.58;;;3.10;99.90;;;;;;4954486;28;20209;-85
2022/12/02 09:19:35;;;;;;;27.77;19.77;;;3.10;99.90;;;;;;4954799;29;20248;-85
2022/12/02 09:22:04;;;;;;;26.10;20.75;;;3.10;99.90;;;;;;4954986;29;20201;-85
2022/12/02 09:24:33;;;;;;;27.85;22.33;;;3.20;99.90;;;;;;4954997;28;20228;-85
2022/12/02 09:27:03;;;;;;;24.33;19.08;;;3.20;99.90;;;;;;4955072;29;20201;-85
2022/12/02 09:29:33;;;;;;;25.98;20.02;;;3.30;99.90;;;;;;4954652;29;20201;-85
2022/12/02 09:32:02;;;;;;;30.30;21.83;;;3.30;99.90;;;;;;4955043;28;20201;-85
2022/12/02 09:34:31;;;;;;;27.02;20.50;;;3.40;99.90;;;;;;4954355;28;20229;-85
2022/12/02 09:36:59;;;;;;;24.13;19.90;;;3.40;99.90;;;;;;4954551;29;20206;-85
2022/12/02 09:39:28;;;;;;;27.30;20.17;;;3.40;99.90;;;;;;4954617;29;20217;-84
2022/12/02 09:42:04;;;;;;;30.45;20.88;;;3.40;99.90;;;;;;4954329;29;20220;-85
2022/12/02 09:44:38;;;;;;;29.40;21.50;;;3.50;99.90;;;;;;4954967;28;20229;-85
2022/12/02 09:47:10;;;;;;;29.13;19.98;;;3.50;99.90;;;;;;4954517;29;20300;-85
2022/12/02 09:49:43;;;;;;;22.98;19.10;;;3.50;99.90;;;;;;4954613;29;20234;-85
2022/12/02 09:52:20;;;;;;;27.75;20.52;;;3.50;99.90;;;;;;4954776;28;20209;-85
2022/12/02 09:54:57;;;;;;;28.80;22.27;;;3.50;99.90;;;;;;4954804;29;20224;-85
2022/12/02 09:57:33;;;;;;;29.98;20.88;;;3.40;99.90;;;;;;4954489;28;20197;-85
2022/12/02 10:00:12;;;;;;;35.40;21.88;;;3.40;99.90;;;;;;4954219;29;20201;-85
2022/12/02 10:02:43;;;;;;;23.73;19.63;;;3.30;99.90;;;;;;4954459;28;20212;-85
2022/12/02 10:05:15;;;;;;;24.30;19.65;;;3.30;99.90;;;;;;4954833;29;20209;-85
2022/12/02 10:07:44;;;;;;;26.08;20.70;;;3.30;99.90;;;;;;4954426;29;20272;-85
2022/12/02 10:10:16;;;;;;;30.58;21.13;;;3.20;99.90;;;;;;4953131;28;20527;-85
2022/12/02 10:12:45;;;;;;;27.27;20.92;;;3.20;99.90;;;;;;4951988;28;20237;-85
2022/12/02 10:15:19;;;;;;;23.38;20.10;;;3.20;99.90;;;;;;4952636;28;20269;-85
2022/12/02 10:17:48;;;;;;;26.27;20.77;;;3.20;99.90;;;;;;4954510;29;20247;-86
2022/12/02 10:20:20;;;;;;;27.38;20.25;;;3.10;99.90;;;;;;4954093;28;20204;-85
2022/12/02 10:23:08;;;;;;;25.35;20.63;;;3.10;99.90;;;;;;4954480;29;20232;-85
2022/12/02 10:25:38;;;;;;;26.38;19.58;;;3.10;99.90;;;;;;4954353;29;20300;-86
2022/12/02 10:28:19;;;;;;;29.38;21.77;;;3.10;99.90;;;;;;4954346;29;20212;-85
2022/12/02 10:30:53;;;;;;;25.13;20.45;;;3.00;99.90;;;;;;4954368;28;20213;-86
2022/12/02 10:33:27;;;;;;;27.83;21.45;;;2.90;99.90;;;;;;4954251;29;20240;-86
2022/12/02 10:35:59;;;;;;;37.70;22.45;;;2.90;99.90;;;;;;4954400;28;20232;-86
2022/12/02 10:38:37;;;;;;;22.65;19.70;;;2.90;99.90;;;;;;4954316;28;20300;-86
2022/12/02 10:41:23;;;;;;;29.55;22.33;;;2.90;99.90;;;;;;4954274;28;20215;-85
2022/12/02 10:44:13;;;;;;;24.02;20.13;;;2.90;99.90;;;;;;4956935;28;20229;-86
2022/12/02 10:46:43;;;;;;;28.52;22.05;;;3.00;99.90;;;;;;4957925;29;20217;-86
2022/12/02 10:49:28;;;;;;;32.42;21.42;;;3.00;99.90;;;;;;4956479;28;20217;-85
2022/12/02 10:52:03;;;;;;;30.45;22.65;;;3.00;99.90;;;;;;4953959;29;20213;-86
2022/12/02 10:54:33;;;;;;;28.80;22.13;;;3.00;99.90;;;;;;4940989;28;20233;-86
2022/12/02 10:57:14;;;;;;;28.30;22.77;;;2.90;99.90;;;;;;4943511;28;20284;-87
2022/12/02 10:59:43;;;;;;;34.05;23.23;;;2.90;99.90;;;;;;4955427;28;20213;-87
2022/12/02 11:02:20;;;;;;;30.92;22.67;;;2.90;99.90;;;;;;4955170;28;20296;-86
2022/12/02 11:04:48;;;;;;;28.92;23.35;;;2.90;99.90;;;;;;4955369;28;20217;-86
2022/12/02 11:07:20;;;;;;;32.97;23.25;;;2.90;99.90;;;;;;4955089;28;20309;-85
2022/12/02 11:09:53;;;;;;;28.73;23.88;;;2.90;99.90;;;;;;4954940;28;20205;-85
2022/12/02 11:12:36;;;;;;;40.50;25.25;;;2.90;99.90;;;;;;4955209;28;20263;-91
2022/12/02 11:15:39;;;;;;;30.63;22.77;;;2.90;99.90;;;;;;4955202;28;20225;-85
2022/12/02 11:18:10;;;;;;;34.47;25.23;;;2.90;99.90;;;;;;4955266;28;20291;-85
2022/12/02 11:20:42;;;;;;;30.30;24.42;;;2.90;99.90;;;;;;4955010;28;20240;-86
2022/12/02 11:23:21;;;;;;;31.55;25.77;;;2.80;99.90;;;;;;4952253;28;20233;-86
2022/12/02 11:26:04;;;;;;;36.90;26.25;;;2.70;99.90;;;;;;4973193;28;20212;-85
2022/12/02 11:29:13;;;;;;;37.47;25.83;;;2.60;99.90;;;;;;4957555;28;20248;-91
2022/12/02 11:32:00;;;;;;;33.78;24.38;;;2.60;99.90;;;;;;4954877;28;20209;-84
2022/12/02 11:34:42;;;;;;;42.47;28.02;;;2.50;99.90;;;;;;4949903;28;20233;-84
2022/12/02 11:37:45;;;;;;;35.15;27.08;;;2.50;99.90;;;;;;4935752;29;20209;-88
2022/12/02 11:40:59;;;;;;;33.50;27.42;;;2.40;99.90;;;;;;4942748;28;20231;-84
2022/12/02 11:43:54;;;;;;;34.03;25.48;;;2.40;99.90;;;;;;4960458;28;20252;-84
2022/12/02 11:46:40;;;;;;;34.15;27.02;;;2.40;99.90;;;;;;4965829;28;20233;-84
2022/12/02 11:49:30;;;;;;;41.60;26.13;;;2.40;99.90;;;;;;4954771;28;20213;-90
2022/12/02 11:52:16;;;;;;;40.00;27.60;;;2.30;99.90;;;;;;4954625;28;20299;-90
2022/12/02 11:54:49;;;;;;;33.47;27.17;;;2.30;99.90;;;;;;4953543;28;20243;-90
2022/12/02 11:57:22;;;;;;;41.58;25.42;;;2.30;99.90;;;;;;4954291;28;20241;-90
2022/12/02 11:59:50;;;;;;;29.02;23.52;;;2.20;99.90;;;;;;4954275;28;20224;-86
2022/12/02 12:02:21;;;;;;;39.58;26.83;;;2.20;99.90;;;;;;4954481;28;20303;-91
2022/12/02 12:05:03;;;;;;;34.83;26.40;;;2.20;99.90;;;;;;4956387;28;20217;-90
2022/12/02 12:07:42;;;;;;;35.67;25.90;;;2.20;99.90;;;;;;4953890;28;20246;-85
2022/12/02 12:10:28;;;;;;;28.85;24.33;;;2.10;99.90;;;;;;4954081;28;20215;-87
2022/12/02 12:13:21;;;;;;;32.38;25.05;;;2.10;99.90;;;;;;4955832;28;20362;-87
2022/12/02 12:15:53;;;;;;;30.77;24.80;;;2.10;99.90;;;;;;4955709;29;20225;-87
2022/12/02 12:18:39;;;;;;;27.73;22.15;;;2.10;99.90;;;;;;4955605;29;20215;-91
2022/12/02 12:21:09;;;;;;;34.15;23.52;;;2.10;99.90;;;;;;4940047;29;20202;-90
2022/12/02 12:23:39;;;;;;;30.88;25.27;;;2.00;99.90;;;;;;4939331;28;20285;-90
2022/12/02 12:26:09;;;;;;;44.22;24.88;;;2.00;99.90;;;;;;4936712;29;20201;-90
2022/12/02 12:28:38;;;;;;;28.27;22.63;;;2.00;99.90;;;;;;4954702;29;20232;-90
2022/12/02 12:31:07;;;;;;;30.48;22.75;;;2.00;99.90;;;;;;4956036;29;20232;-89
2022/12/02 12:33:35;;;;;;;30.50;21.90;;;1.90;99.90;;;;;;4955877;29;20252;-88
2022/12/02 12:36:04;;;;;;;30.50;22.08;;;1.90;99.90;;;;;;4955947;29;20229;-88
2022/12/02 12:38:34;;;;;;;27.30;22.67;;;1.80;99.90;;;;;;4955344;29;20237;-87
2022/12/02 12:41:02;;;;;;;25.58;22.00;;;1.80;99.90;;;;;;4936903;29;20202;-87
2022/12/02 12:43:30;;;;;;;23.55;21.00;;;1.80;99.90;;;;;;4936971;29;20285;-87
2022/12/02 12:45:59;;;;;;;26.83;21.20;;;1.80;99.90;;;;;;4936294;29;20277;-88
2022/12/02 12:48:27;;;;;;;30.58;21.77;;;1.70;99.90;;;;;;4946651;29;20197;-86
2022/12/02 12:50:55;;;;;;;26.35;22.17;;;1.70;99.90;;;;;;4955505;28;20209;-87
2022/12/02 12:53:26;;;;;;;27.33;21.75;;;1.70;99.90;;;;;;4955953;28;20237;-86
2022/12/02 12:55:56;;;;;;;31.05;22.33;;;1.70;99.90;;;;;;4955224;29;20301;-87
2022/12/02 12:58:28;;;;;;;26.83;22.15;;;1.70;99.90;;;;;;4954524;29;20220;-88
2022/12/02 13:01:00;;;;;;;27.38;22.65;;;1.70;99.90;;;;;;4954564;29;20217;-85
2022/12/02 13:03:29;;;;;;;26.20;22.13;;;1.70;99.90;;;;;;4953987;28;20240;-85
2022/12/02 13:05:57;;;;;;;30.85;24.75;;;1.70;99.90;;;;;;4952909;28;20272;-85
2022/12/02 13:08:25;;;;;;;28.27;22.50;;;1.70;99.90;;;;;;4954544;28;20215;-85